sensor_id;sensor_type;location;lat;lon;timestamp;P1;P2;P0
77692;PMS5003;66984;47.404;18.836;2023-07-30T00:00:42;6.00;5.00;1.00
77692;PMS5003;66984;47.404;18.836;2023-07-30T00:01:45;4.00;3.25;0.00
77692;PMS5003;66984;47.404;18.836;2023-07-30T00:02:48;3.00;3.00;0.00
77692;PMS5003;66984;47.404;18.836;2023-07-30T00:03:51;3.00;3.00;0.00
77692;PMS5003;66984;47.404;18.836;2023-07-30T00:04:54;2.00;2.00;0.00
77692;PMS5003;66984;47.404;18.836;2023-07-30T00:06:03;3.00;3.00;0.00
77692;PMS5003;66984;47.404;18.836;2023-07-30T00:07:07;5.00;5.00;0.00
77692;PMS5003;66984;47.404;18.836;2023-07-30T00:08:10;5.25;4.25;1.00
77692;PMS5003;66984;47.404;18.836;2023-07-30T00:09:13;5.00;4.00;0.00
77692;PMS5003;66984;47.404;18.836;2023-07-30T00:10:22;4.25;4.25;0.00
77692;PMS5003;66984;47.404;18.836;2023-07-30T00:11:25;3.00;3.00;0.00
77692;PMS5003;66984;47.404;18.836;2023-07-30T00:12:28;4.00;4.00;0.25
77692;PMS5003;66984;47.404;18.836;2023-07-30T00:13:31;3.00;3.00;1.00
77692;PMS5003;66984;47.404;18.836;2023-07-30T00:14:40;5.00;4.75;1.75
77692;PMS5003;66984;47.404;18.836;2023-07-30T00:15:45;4.00;3.00;1.00
77692;PMS5003;66984;47.404;18.836;2023-07-30T00:16:48;4.50;4.50;1.00
77692;PMS5003;66984;47.404;18.836;2023-07-30T00:17:51;6.00;4.00;2.00
77692;PMS5003;66984;47.404;18.836;2023-07-30T00:18:54;3.00;3.00;1.00
77692;PMS5003;66984;47.404;18.836;2023-07-30T00:20:05;3.00;2.00;1.00
77692;PMS5003;66984;47.404;18.836;2023-07-30T00:21:10;5.50;4.00;2.00
77692;PMS5003;66984;47.404;18.836;2023-07-30T00:22:13;6.00;4.25;1.25
77692;PMS5003;66984;47.404;18.836;2023-07-30T00:23:16;5.00;5.00;3.00
77692;PMS5003;66984;47.404;18.836;2023-07-30T00:24:18;4.00;4.00;2.00
77692;PMS5003;66984;47.404;18.836;2023-07-30T00:25:28;4.00;4.00;2.00
77692;PMS5003;66984;47.404;18.836;2023-07-30T00:26:44;4.00;4.00;0.00
77692;PMS5003;66984;47.404;18.836;2023-07-30T00:27:53;4.00;4.00;0.00
77692;PMS5003;66984;47.404;18.836;2023-07-30T00:28:56;5.00;5.00;2.00
77692;PMS5003;66984;47.404;18.836;2023-07-30T00:29:59;4.00;4.00;1.00
77692;PMS5003;66984;47.404;18.836;2023-07-30T00:31:02;4.00;4.00;1.00
77692;PMS5003;66984;47.404;18.836;2023-07-30T00:32:05;4.75;4.75;2.25
77692;PMS5003;66984;47.404;18.836;2023-07-30T00:33:14;5.00;5.00;2.00
77692;PMS5003;66984;47.404;18.836;2023-07-30T00:34:23;5.00;5.00;2.00
77692;PMS5003;66984;47.404;18.836;2023-07-30T00:35:26;5.25;5.00;2.00
77692;PMS5003;66984;47.404;18.836;2023-07-30T00:36:29;4.00;4.00;1.00
77692;PMS5003;66984;47.404;18.836;2023-07-30T00:37:32;4.00;3.00;1.00
77692;PMS5003;66984;47.404;18.836;2023-07-30T00:38:35;3.00;2.50;1.00
77692;PMS5003;66984;47.404;18.836;2023-07-30T00:39:44;3.00;3.00;2.00
77692;PMS5003;66984;47.404;18.836;2023-07-30T00:40:47;3.75;3.75;2.00
77692;PMS5003;66984;47.404;18.836;2023-07-30T00:41:50;5.00;4.50;2.00
77692;PMS5003;66984;47.404;18.836;2023-07-30T00:42:53;5.00;4.00;1.00
77692;PMS5003;66984;47.404;18.836;2023-07-30T00:43:56;4.50;4.50;0.00
77692;PMS5003;66984;47.404;18.836;2023-07-30T00:45:05;3.00;3.00;0.00
77692;PMS5003;66984;47.404;18.836;2023-07-30T00:46:09;4.75;4.75;0.00
77692;PMS5003;66984;47.404;18.836;2023-07-30T00:47:12;3.25;3.25;0.00
77692;PMS5003;66984;47.404;18.836;2023-07-30T00:48:15;4.00;4.00;0.00
77692;PMS5003;66984;47.404;18.836;2023-07-30T00:49:18;4.00;4.00;0.00
77692;PMS5003;66984;47.404;18.836;2023-07-30T00:50:27;3.00;3.00;0.00
77692;PMS5003;66984;47.404;18.836;2023-07-30T00:51:31;3.00;3.00;0.00
77692;PMS5003;66984;47.404;18.836;2023-07-30T00:52:36;2.00;2.00;0.00
77692;PMS5003;66984;47.404;18.836;2023-07-30T00:53:39;2.50;2.00;0.00
77692;PMS5003;66984;47.404;18.836;2023-07-30T00:54:42;3.00;3.00;0.00
77692;PMS5003;66984;47.404;18.836;2023-07-30T00:55:51;3.00;3.00;0.00
77692;PMS5003;66984;47.404;18.836;2023-07-30T00:57:01;4.00;4.00;0.00
77692;PMS5003;66984;47.404;18.836;2023-07-30T00:58:05;3.00;3.00;0.00
77692;PMS5003;66984;47.404;18.836;2023-07-30T00:59:08;3.00;3.00;1.00
77692;PMS5003;66984;47.404;18.836;2023-07-30T01:00:11;3.25;3.25;1.00
77692;PMS5003;66984;47.404;18.836;2023-07-30T01:01:14;3.75;3.75;1.50
77692;PMS5003;66984;47.404;18.836;2023-07-30T01:02:24;3.75;3.75;0.50
77692;PMS5003;66984;47.404;18.836;2023-07-30T01:03:28;2.00;2.00;1.00
77692;PMS5003;66984;47.404;18.836;2023-07-30T01:04:31;4.00;4.00;1.00
77692;PMS5003;66984;47.404;18.836;2023-07-30T01:05:35;3.00;3.00;0.00
77692;PMS5003;66984;47.404;18.836;2023-07-30T01:06:38;2.00;2.00;0.00
77692;PMS5003;66984;47.404;18.836;2023-07-30T01:07:47;3.25;3.25;0.00
77692;PMS5003;66984;47.404;18.836;2023-07-30T01:08:56;3.00;3.00;0.00
77692;PMS5003;66984;47.404;18.836;2023-07-30T01:09:59;4.00;4.00;0.00
77692;PMS5003;66984;47.404;18.836;2023-07-30T01:11:03;5.00;4.50;0.00
77692;PMS5003;66984;47.404;18.836;2023-07-30T01:12:08;4.00;4.00;0.00
77692;PMS5003;66984;47.404;18.836;2023-07-30T01:13:11;3.25;3.00;0.00
77692;PMS5003;66984;47.404;18.836;2023-07-30T01:14:23;3.25;3.25;0.00
77692;PMS5003;66984;47.404;18.836;2023-07-30T01:15:28;2.00;1.00;0.00
77692;PMS5003;66984;47.404;18.836;2023-07-30T01:16:32;2.00;2.00;0.00
77692;PMS5003;66984;47.404;18.836;2023-07-30T01:17:36;1.00;1.00;0.00
77692;PMS5003;66984;47.404;18.836;2023-07-30T01:18:39;3.00;3.00;0.00
77692;PMS5003;66984;47.404;18.836;2023-07-30T01:19:48;3.00;3.00;1.00
77692;PMS5003;66984;47.404;18.836;2023-07-30T01:20:57;2.00;2.00;0.00
77692;PMS5003;66984;47.404;18.836;2023-07-30T01:22:01;2.00;2.00;0.00
77692;PMS5003;66984;47.404;18.836;2023-07-30T01:23:04;1.00;1.00;0.00
77692;PMS5003;66984;47.404;18.836;2023-07-30T01:24:07;2.00;2.00;0.00
77692;PMS5003;66984;47.404;18.836;2023-07-30T01:25:17;2.00;2.00;0.00
77692;PMS5003;66984;47.404;18.836;2023-07-30T01:28:19;3.00;3.00;0.00
77692;PMS5003;66984;47.404;18.836;2023-07-30T01:30:38;2.50;2.50;0.00
77692;PMS5003;66984;47.404;18.836;2023-07-30T01:31:53;2.00;2.00;0.00
77692;PMS5003;66984;47.404;18.836;2023-07-30T01:32:58;2.50;2.50;0.00
77692;PMS5003;66984;47.404;18.836;2023-07-30T01:34:01;2.00;2.00;0.00
77692;PMS5003;66984;47.404;18.836;2023-07-30T01:35:06;2.00;2.00;0.00
77692;PMS5003;66984;47.404;18.836;2023-07-30T01:36:10;2.00;2.00;0.00
77692;PMS5003;66984;47.404;18.836;2023-07-30T01:37:24;2.00;2.00;0.00
77692;PMS5003;66984;47.404;18.836;2023-07-30T01:38:29;1.00;0.25;0.00
77692;PMS5003;66984;47.404;18.836;2023-07-30T01:39:32;3.00;2.50;0.00
77692;PMS5003;66984;47.404;18.836;2023-07-30T01:40:38;2.00;2.00;1.00
77692;PMS5003;66984;47.404;18.836;2023-07-30T01:41:42;3.00;3.00;0.00
77692;PMS5003;66984;47.404;18.836;2023-07-30T01:42:50;2.00;2.00;0.00
77692;PMS5003;66984;47.404;18.836;2023-07-30T01:43:53;1.75;1.75;0.00
77692;PMS5003;66984;47.404;18.836;2023-07-30T01:44:56;1.00;1.00;0.00
77692;PMS5003;66984;47.404;18.836;2023-07-30T01:45:59;1.00;1.00;0.00
77692;PMS5003;66984;47.404;18.836;2023-07-30T01:47:02;2.25;2.25;0.50
77692;PMS5003;66984;47.404;18.836;2023-07-30T01:48:11;1.00;1.00;0.00
77692;PMS5003;66984;47.404;18.836;2023-07-30T01:49:14;2.00;2.00;0.00
77692;PMS5003;66984;47.404;18.836;2023-07-30T01:50:17;1.00;1.00;0.00
77692;PMS5003;66984;47.404;18.836;2023-07-30T01:51:20;0.00;0.00;0.00
77692;PMS5003;66984;47.404;18.836;2023-07-30T01:52:23;0.00;0.00;0.00
77692;PMS5003;66984;47.404;18.836;2023-07-30T01:53:33;1.00;1.00;0.00
77692;PMS5003;66984;47.404;18.836;2023-07-30T01:54:35;2.00;2.00;0.00
77692;PMS5003;66984;47.404;18.836;2023-07-30T01:55:38;1.00;1.00;0.00
77692;PMS5003;66984;47.404;18.836;2023-07-30T01:56:45;2.00;2.00;0.00
77692;PMS5003;66984;47.404;18.836;2023-07-30T01:57:48;2.75;1.00;0.00
77692;PMS5003;66984;47.404;18.836;2023-07-30T01:58:57;2.00;1.00;0.00
77692;PMS5003;66984;47.404;18.836;2023-07-30T02:00:00;1.00;1.00;0.00
77692;PMS5003;66984;47.404;18.836;2023-07-30T02:01:03;2.25;1.25;0.00
77692;PMS5003;66984;47.404;18.836;2023-07-30T02:02:06;2.00;1.00;0.00
77692;PMS5003;66984;47.404;18.836;2023-07-30T02:03:10;1.00;0.00;0.00
77692;PMS5003;66984;47.404;18.836;2023-07-30T02:04:20;2.00;1.00;0.00
77692;PMS5003;66984;47.404;18.836;2023-07-30T02:05:22;2.00;2.00;0.00
77692;PMS5003;66984;47.404;18.836;2023-07-30T02:06:26;4.00;3.00;0.00
77692;PMS5003;66984;47.404;18.836;2023-07-30T02:07:29;3.00;3.00;0.00
77692;PMS5003;66984;47.404;18.836;2023-07-30T02:08:32;2.00;2.00;0.00
77692;PMS5003;66984;47.404;18.836;2023-07-30T02:09:42;3.00;2.50;0.00
77692;PMS5003;66984;47.404;18.836;2023-07-30T02:10:55;2.00;2.00;0.00
77692;PMS5003;66984;47.404;18.836;2023-07-30T02:11:59;2.00;2.00;0.00
77692;PMS5003;66984;47.404;18.836;2023-07-30T02:13:02;2.00;2.00;0.00
77692;PMS5003;66984;47.404;18.836;2023-07-30T02:14:04;2.00;2.00;0.00
77692;PMS5003;66984;47.404;18.836;2023-07-30T02:15:08;2.00;2.00;0.00
77692;PMS5003;66984;47.404;18.836;2023-07-30T02:16:17;2.00;2.00;0.50
77692;PMS5003;66984;47.404;18.836;2023-07-30T02:17:20;1.75;1.75;0.00
77692;PMS5003;66984;47.404;18.836;2023-07-30T02:18:23;1.50;1.50;0.00
77692;PMS5003;66984;47.404;18.836;2023-07-30T02:19:26;1.00;1.00;0.00
77692;PMS5003;66984;47.404;18.836;2023-07-30T02:20:29;2.00;2.00;0.00
77692;PMS5003;66984;47.404;18.836;2023-07-30T02:21:39;2.50;1.00;0.00
77692;PMS5003;66984;47.404;18.836;2023-07-30T02:22:45;2.75;1.75;0.00
77692;PMS5003;66984;47.404;18.836;2023-07-30T02:23:48;1.25;1.00;0.00
77692;PMS5003;66984;47.404;18.836;2023-07-30T02:24:50;1.75;1.00;0.00
77692;PMS5003;66984;47.404;18.836;2023-07-30T02:26:06;1.00;1.00;0.00
77692;PMS5003;66984;47.404;18.836;2023-07-30T02:27:16;1.00;1.00;0.00
77692;PMS5003;66984;47.404;18.836;2023-07-30T02:28:18;2.00;1.75;0.00
77692;PMS5003;66984;47.404;18.836;2023-07-30T02:29:28;3.00;2.75;0.00
77692;PMS5003;66984;47.404;18.836;2023-07-30T02:30:32;3.00;3.00;0.00
77692;PMS5003;66984;47.404;18.836;2023-07-30T02:31:36;2.00;2.00;0.00
77692;PMS5003;66984;47.404;18.836;2023-07-30T02:32:39;1.00;1.00;0.00
77692;PMS5003;66984;47.404;18.836;2023-07-30T02:33:43;1.00;1.00;0.00
77692;PMS5003;66984;47.404;18.836;2023-07-30T02:34:53;1.00;1.00;0.00
77692;PMS5003;66984;47.404;18.836;2023-07-30T02:35:55;1.00;1.00;0.00
77692;PMS5003;66984;47.404;18.836;2023-07-30T02:36:58;4.00;4.00;0.00
77692;PMS5003;66984;47.404;18.836;2023-07-30T02:38:01;4.00;3.00;0.00
77692;PMS5003;66984;47.404;18.836;2023-07-30T02:39:11;3.00;3.00;0.00
77692;PMS5003;66984;47.404;18.836;2023-07-30T02:40:13;1.00;1.00;0.00
77692;PMS5003;66984;47.404;18.836;2023-07-30T02:41:16;1.00;1.00;0.00
77692;PMS5003;66984;47.404;18.836;2023-07-30T02:42:26;2.00;2.00;0.00
77692;PMS5003;66984;47.404;18.836;2023-07-30T02:43:28;3.00;2.00;0.00
77692;PMS5003;66984;47.404;18.836;2023-07-30T02:44:31;2.25;2.25;0.00
77692;PMS5003;66984;47.404;18.836;2023-07-30T02:45:34;2.00;2.00;0.00
77692;PMS5003;66984;47.404;18.836;2023-07-30T02:46:44;2.00;2.00;0.00
77692;PMS5003;66984;47.404;18.836;2023-07-30T02:47:47;1.00;1.00;0.00
77692;PMS5003;66984;47.404;18.836;2023-07-30T02:48:50;1.00;1.00;0.00
77692;PMS5003;66984;47.404;18.836;2023-07-30T02:49:53;3.00;3.00;0.00
77692;PMS5003;66984;47.404;18.836;2023-07-30T02:50:56;2.25;2.25;0.00
77692;PMS5003;66984;47.404;18.836;2023-07-30T02:52:06;2.00;2.00;0.00
77692;PMS5003;66984;47.404;18.836;2023-07-30T02:53:09;2.00;2.00;0.00
77692;PMS5003;66984;47.404;18.836;2023-07-30T02:54:18;2.25;2.00;0.00
77692;PMS5003;66984;47.404;18.836;2023-07-30T02:55:23;2.75;2.25;0.00
77692;PMS5003;66984;47.404;18.836;2023-07-30T02:56:26;4.00;4.00;0.00
77692;PMS5003;66984;47.404;18.836;2023-07-30T02:57:29;3.00;3.00;0.00
77692;PMS5003;66984;47.404;18.836;2023-07-30T02:58:38;2.00;2.00;0.00
77692;PMS5003;66984;47.404;18.836;2023-07-30T02:59:41;3.00;2.00;0.00
77692;PMS5003;66984;47.404;18.836;2023-07-30T03:00:43;5.00;3.00;0.00
77692;PMS5003;66984;47.404;18.836;2023-07-30T03:01:46;3.00;3.00;0.00
77692;PMS5003;66984;47.404;18.836;2023-07-30T03:02:49;2.00;2.00;0.00
77692;PMS5003;66984;47.404;18.836;2023-07-30T03:03:59;2.00;2.00;0.00
77692;PMS5003;66984;47.404;18.836;2023-07-30T03:05:08;1.00;1.00;0.00
77692;PMS5003;66984;47.404;18.836;2023-07-30T03:06:11;2.00;2.00;0.00
77692;PMS5003;66984;47.404;18.836;2023-07-30T03:07:14;2.25;2.25;0.00
77692;PMS5003;66984;47.404;18.836;2023-07-30T03:08:16;2.00;1.00;0.00
77692;PMS5003;66984;47.404;18.836;2023-07-30T03:09:19;3.00;2.00;0.00
77692;PMS5003;66984;47.404;18.836;2023-07-30T03:10:29;2.25;2.25;0.00
77692;PMS5003;66984;47.404;18.836;2023-07-30T03:11:32;2.00;2.00;0.00
77692;PMS5003;66984;47.404;18.836;2023-07-30T03:12:35;2.00;2.00;0.00
77692;PMS5003;66984;47.404;18.836;2023-07-30T03:13:38;3.25;3.25;0.00
77692;PMS5003;66984;47.404;18.836;2023-07-30T03:14:40;1.50;1.50;0.00
77692;PMS5003;66984;47.404;18.836;2023-07-30T03:15:50;2.00;2.00;1.00
77692;PMS5003;66984;47.404;18.836;2023-07-30T03:16:53;2.00;2.00;1.00
77692;PMS5003;66984;47.404;18.836;2023-07-30T03:17:56;1.75;1.75;0.00
77692;PMS5003;66984;47.404;18.836;2023-07-30T03:18:58;1.00;1.00;0.00
77692;PMS5003;66984;47.404;18.836;2023-07-30T03:20:01;3.00;2.00;0.00
77692;PMS5003;66984;47.404;18.836;2023-07-30T03:21:13;1.25;1.25;0.00
77692;PMS5003;66984;47.404;18.836;2023-07-30T03:22:16;1.00;1.00;0.00
77692;PMS5003;66984;47.404;18.836;2023-07-30T03:23:19;2.75;2.00;0.00
77692;PMS5003;66984;47.404;18.836;2023-07-30T03:24:21;2.00;2.00;1.00
77692;PMS5003;66984;47.404;18.836;2023-07-30T03:25:24;1.75;1.75;1.00
77692;PMS5003;66984;47.404;18.836;2023-07-30T03:26:47;2.50;2.00;1.00
77692;PMS5003;66984;47.404;18.836;2023-07-30T03:27:50;4.00;4.00;1.00
77692;PMS5003;66984;47.404;18.836;2023-07-30T03:29:00;3.75;3.75;0.00
77692;PMS5003;66984;47.404;18.836;2023-07-30T03:30:03;3.25;3.25;0.00
77692;PMS5003;66984;47.404;18.836;2023-07-30T03:31:07;3.00;2.25;0.00
77692;PMS5003;66984;47.404;18.836;2023-07-30T03:32:10;2.00;1.75;0.00
77692;PMS5003;66984;47.404;18.836;2023-07-30T03:33:12;1.00;1.00;0.00
77692;PMS5003;66984;47.404;18.836;2023-07-30T03:34:22;3.00;3.00;0.00
77692;PMS5003;66984;47.404;18.836;2023-07-30T03:35:25;1.00;1.00;0.00
77692;PMS5003;66984;47.404;18.836;2023-07-30T03:36:27;2.00;1.00;0.00
77692;PMS5003;66984;47.404;18.836;2023-07-30T03:37:30;2.75;2.25;0.00
77692;PMS5003;66984;47.404;18.836;2023-07-30T03:38:33;3.25;3.00;0.00
77692;PMS5003;66984;47.404;18.836;2023-07-30T03:39:43;3.75;3.25;1.00
77692;PMS5003;66984;47.404;18.836;2023-07-30T03:40:46;2.25;2.25;0.00
77692;PMS5003;66984;47.404;18.836;2023-07-30T03:41:48;1.75;1.75;0.00
77692;PMS5003;66984;47.404;18.836;2023-07-30T03:42:51;3.50;2.50;0.00
77692;PMS5003;66984;47.404;18.836;2023-07-30T03:43:54;3.00;2.00;0.00
77692;PMS5003;66984;47.404;18.836;2023-07-30T03:45:04;2.50;2.50;0.00
77692;PMS5003;66984;47.404;18.836;2023-07-30T03:46:07;1.00;1.00;0.00
77692;PMS5003;66984;47.404;18.836;2023-07-30T03:47:10;2.00;2.00;0.00
77692;PMS5003;66984;47.404;18.836;2023-07-30T03:48:13;1.00;1.00;0.00
77692;PMS5003;66984;47.404;18.836;2023-07-30T03:49:16;1.50;1.50;0.00
77692;PMS5003;66984;47.404;18.836;2023-07-30T03:50:26;1.25;1.25;0.00
77692;PMS5003;66984;47.404;18.836;2023-07-30T03:51:29;3.00;3.00;0.00
77692;PMS5003;66984;47.404;18.836;2023-07-30T03:52:32;2.00;2.00;0.00
77692;PMS5003;66984;47.404;18.836;2023-07-30T03:53:34;2.25;2.25;0.00
77692;PMS5003;66984;47.404;18.836;2023-07-30T03:54:37;2.75;2.75;0.00
77692;PMS5003;66984;47.404;18.836;2023-07-30T03:55:47;3.00;2.00;0.00
77692;PMS5003;66984;47.404;18.836;2023-07-30T03:56:50;3.00;2.50;0.00
77692;PMS5003;66984;47.404;18.836;2023-07-30T03:57:53;4.00;3.00;0.00
77692;PMS5003;66984;47.404;18.836;2023-07-30T03:59:02;2.00;2.00;0.00
77692;PMS5003;66984;47.404;18.836;2023-07-30T04:00:05;2.00;2.00;0.00
77692;PMS5003;66984;47.404;18.836;2023-07-30T04:01:15;3.00;3.00;0.00
77692;PMS5003;66984;47.404;18.836;2023-07-30T04:02:18;3.00;2.00;1.00
77692;PMS5003;66984;47.404;18.836;2023-07-30T04:03:21;1.50;1.50;0.00
77692;PMS5003;66984;47.404;18.836;2023-07-30T04:04:25;1.00;1.00;0.00
77692;PMS5003;66984;47.404;18.836;2023-07-30T04:05:28;1.00;1.00;0.00
77692;PMS5003;66984;47.404;18.836;2023-07-30T04:06:38;2.00;1.75;0.00
77692;PMS5003;66984;47.404;18.836;2023-07-30T04:07:41;2.00;2.00;0.00
77692;PMS5003;66984;47.404;18.836;2023-07-30T04:08:45;3.00;2.00;0.00
77692;PMS5003;66984;47.404;18.836;2023-07-30T04:09:48;3.00;3.00;0.00
77692;PMS5003;66984;47.404;18.836;2023-07-30T04:10:51;2.00;2.00;0.00
77692;PMS5003;66984;47.404;18.836;2023-07-30T04:12:00;2.00;2.00;1.00
77692;PMS5003;66984;47.404;18.836;2023-07-30T04:13:09;2.00;2.00;1.00
77692;PMS5003;66984;47.404;18.836;2023-07-30T04:14:12;4.00;3.00;1.00
77692;PMS5003;66984;47.404;18.836;2023-07-30T04:15:15;2.50;2.50;0.00
77692;PMS5003;66984;47.404;18.836;2023-07-30T04:16:18;4.00;4.00;0.00
77692;PMS5003;66984;47.404;18.836;2023-07-30T04:17:21;2.50;2.50;0.00
77692;PMS5003;66984;47.404;18.836;2023-07-30T04:18:31;2.00;2.00;0.00
77692;PMS5003;66984;47.404;18.836;2023-07-30T04:19:34;3.00;3.00;0.00
77692;PMS5003;66984;47.404;18.836;2023-07-30T04:20:37;1.75;1.75;0.00
77692;PMS5003;66984;47.404;18.836;2023-07-30T04:21:39;4.00;4.00;0.00
77692;PMS5003;66984;47.404;18.836;2023-07-30T04:22:42;3.00;3.00;0.00
77692;PMS5003;66984;47.404;18.836;2023-07-30T04:23:52;4.00;3.00;0.00
77692;PMS5003;66984;47.404;18.836;2023-07-30T04:24:55;4.00;4.00;0.00
77692;PMS5003;66984;47.404;18.836;2023-07-30T04:26:04;3.00;3.00;0.00
77692;PMS5003;66984;47.404;18.836;2023-07-30T04:27:19;2.25;2.00;0.00
77692;PMS5003;66984;47.404;18.836;2023-07-30T04:28:22;3.00;2.75;0.00
77692;PMS5003;66984;47.404;18.836;2023-07-30T04:29:25;3.00;3.00;1.00
77692;PMS5003;66984;47.404;18.836;2023-07-30T04:30:28;3.00;3.00;0.00
77692;PMS5003;66984;47.404;18.836;2023-07-30T04:31:38;3.00;3.00;0.00
77692;PMS5003;66984;47.404;18.836;2023-07-30T04:32:41;2.00;2.00;0.00
77692;PMS5003;66984;47.404;18.836;2023-07-30T04:33:44;3.50;3.00;0.00
77692;PMS5003;66984;47.404;18.836;2023-07-30T04:34:47;4.00;4.00;0.00
77692;PMS5003;66984;47.404;18.836;2023-07-30T04:35:50;5.25;5.00;0.00
77692;PMS5003;66984;47.404;18.836;2023-07-30T04:36:59;2.00;2.00;0.00
77692;PMS5003;66984;47.404;18.836;2023-07-30T04:38:02;4.00;4.00;0.00
77692;PMS5003;66984;47.404;18.836;2023-07-30T04:39:05;4.25;4.25;0.00
77692;PMS5003;66984;47.404;18.836;2023-07-30T04:40:08;3.00;3.00;0.00
77692;PMS5003;66984;47.404;18.836;2023-07-30T04:41:11;3.00;3.00;0.00
77692;PMS5003;66984;47.404;18.836;2023-07-30T04:42:20;3.00;3.00;0.00
77692;PMS5003;66984;47.404;18.836;2023-07-30T04:43:23;3.00;3.00;0.00
77692;PMS5003;66984;47.404;18.836;2023-07-30T04:44:26;4.00;4.00;0.00
77692;PMS5003;66984;47.404;18.836;2023-07-30T04:45:29;3.00;3.00;0.00
77692;PMS5003;66984;47.404;18.836;2023-07-30T04:46:32;3.00;3.00;0.00
77692;PMS5003;66984;47.404;18.836;2023-07-30T04:47:42;1.00;1.00;0.00
77692;PMS5003;66984;47.404;18.836;2023-07-30T04:48:45;3.00;3.00;0.00
77692;PMS5003;66984;47.404;18.836;2023-07-30T04:49:48;2.00;2.00;0.00
77692;PMS5003;66984;47.404;18.836;2023-07-30T04:50:51;2.50;1.75;0.00
77692;PMS5003;66984;47.404;18.836;2023-07-30T04:51:54;2.00;2.00;0.00
77692;PMS5003;66984;47.404;18.836;2023-07-30T04:53:03;3.00;2.75;0.00
77692;PMS5003;66984;47.404;18.836;2023-07-30T04:54:06;3.00;3.00;0.00
77692;PMS5003;66984;47.404;18.836;2023-07-30T04:55:09;2.00;2.00;0.00
77692;PMS5003;66984;47.404;18.836;2023-07-30T04:56:12;3.00;3.00;0.00
77692;PMS5003;66984;47.404;18.836;2023-07-30T04:57:15;3.00;2.75;0.00
77692;PMS5003;66984;47.404;18.836;2023-07-30T04:58:24;3.00;3.00;0.00
77692;PMS5003;66984;47.404;18.836;2023-07-30T04:59:27;4.00;4.00;0.00
77692;PMS5003;66984;47.404;18.836;2023-07-30T05:00:30;3.00;3.00;0.00
77692;PMS5003;66984;47.404;18.836;2023-07-30T05:01:33;4.00;4.00;0.00
77692;PMS5003;66984;47.404;18.836;2023-07-30T05:02:36;3.00;3.00;0.00
77692;PMS5003;66984;47.404;18.836;2023-07-30T05:03:45;3.25;3.25;0.00
77692;PMS5003;66984;47.404;18.836;2023-07-30T05:04:48;5.00;5.00;0.00
77692;PMS5003;66984;47.404;18.836;2023-07-30T05:05:51;4.25;4.25;0.00
77692;PMS5003;66984;47.404;18.836;2023-07-30T05:06:54;4.00;3.00;1.00
77692;PMS5003;66984;47.404;18.836;2023-07-30T05:07:57;4.00;4.00;1.00
77692;PMS5003;66984;47.404;18.836;2023-07-30T05:09:06;2.00;2.00;1.00
77692;PMS5003;66984;47.404;18.836;2023-07-30T05:10:16;3.25;3.25;0.00
77692;PMS5003;66984;47.404;18.836;2023-07-30T05:11:19;3.00;3.00;0.00
77692;PMS5003;66984;47.404;18.836;2023-07-30T05:12:22;3.00;3.00;0.00
77692;PMS5003;66984;47.404;18.836;2023-07-30T05:13:25;5.00;5.00;0.00
77692;PMS5003;66984;47.404;18.836;2023-07-30T05:14:34;4.00;3.00;0.00
77692;PMS5003;66984;47.404;18.836;2023-07-30T05:15:37;4.50;4.00;0.00
77692;PMS5003;66984;47.404;18.836;2023-07-30T05:16:40;2.00;2.00;0.00
77692;PMS5003;66984;47.404;18.836;2023-07-30T05:17:49;3.00;3.00;0.00
77692;PMS5003;66984;47.404;18.836;2023-07-30T05:18:52;4.00;4.00;0.00
77692;PMS5003;66984;47.404;18.836;2023-07-30T05:19:55;3.00;3.00;0.00
77692;PMS5003;66984;47.404;18.836;2023-07-30T05:20:58;4.25;4.25;0.00
77692;PMS5003;66984;47.404;18.836;2023-07-30T05:22:01;5.00;3.00;0.00
77692;PMS5003;66984;47.404;18.836;2023-07-30T05:23:10;5.00;4.50;0.00
77692;PMS5003;66984;47.404;18.836;2023-07-30T05:24:13;4.50;4.25;0.25
77692;PMS5003;66984;47.404;18.836;2023-07-30T05:25:16;4.00;4.00;1.00
77692;PMS5003;66984;47.404;18.836;2023-07-30T05:26:32;4.75;4.50;0.00
77692;PMS5003;66984;47.404;18.836;2023-07-30T05:27:35;5.00;5.00;1.00
77692;PMS5003;66984;47.404;18.836;2023-07-30T05:28:44;3.00;3.00;2.00
77692;PMS5003;66984;47.404;18.836;2023-07-30T05:29:47;3.00;3.00;1.00
77692;PMS5003;66984;47.404;18.836;2023-07-30T05:30:50;4.00;4.00;1.00
77692;PMS5003;66984;47.404;18.836;2023-07-30T05:31:53;5.00;4.00;1.00
77692;PMS5003;66984;47.404;18.836;2023-07-30T05:32:56;2.00;2.00;1.00
77692;PMS5003;66984;47.404;18.836;2023-07-30T05:34:05;4.50;4.50;0.00
77692;PMS5003;66984;47.404;18.836;2023-07-30T05:35:08;3.75;3.75;1.00
77692;PMS5003;66984;47.404;18.836;2023-07-30T05:36:11;4.00;3.00;1.00
77692;PMS5003;66984;47.404;18.836;2023-07-30T05:37:14;5.25;5.25;1.00
77692;PMS5003;66984;47.404;18.836;2023-07-30T05:38:17;6.25;6.00;1.50
77692;PMS5003;66984;47.404;18.836;2023-07-30T05:39:26;3.00;3.00;1.00
77692;PMS5003;66984;47.404;18.836;2023-07-30T05:40:29;4.00;4.00;1.00
77692;PMS5003;66984;47.404;18.836;2023-07-30T05:41:32;2.00;2.00;1.00
77692;PMS5003;66984;47.404;18.836;2023-07-30T05:42:35;3.00;3.00;1.00
77692;PMS5003;66984;47.404;18.836;2023-07-30T05:43:38;2.50;2.50;1.00
77692;PMS5003;66984;47.404;18.836;2023-07-30T05:44:47;4.50;4.00;1.00
77692;PMS5003;66984;47.404;18.836;2023-07-30T05:45:50;4.00;4.00;1.00
77692;PMS5003;66984;47.404;18.836;2023-07-30T05:46:53;3.00;3.00;1.00
77692;PMS5003;66984;47.404;18.836;2023-07-30T05:47:56;4.00;4.00;1.00
77692;PMS5003;66984;47.404;18.836;2023-07-30T05:49:05;4.00;4.00;1.00
77692;PMS5003;66984;47.404;18.836;2023-07-30T05:50:08;4.50;4.50;1.00
77692;PMS5003;66984;47.404;18.836;2023-07-30T05:51:11;5.00;5.00;2.25
77692;PMS5003;66984;47.404;18.836;2023-07-30T05:52:14;6.00;6.00;3.00
77692;PMS5003;66984;47.404;18.836;2023-07-30T05:53:17;5.00;5.00;2.00
77692;PMS5003;66984;47.404;18.836;2023-07-30T05:54:26;4.50;4.50;2.00
77692;PMS5003;66984;47.404;18.836;2023-07-30T05:55:29;6.00;5.75;3.00
77692;PMS5003;66984;47.404;18.836;2023-07-30T05:56:32;6.00;6.00;3.00
77692;PMS5003;66984;47.404;18.836;2023-07-30T05:57:35;7.00;7.00;3.00
77692;PMS5003;66984;47.404;18.836;2023-07-30T05:58:38;7.00;6.00;2.00
77692;PMS5003;66984;47.404;18.836;2023-07-30T05:59:47;5.25;5.25;3.00
77692;PMS5003;66984;47.404;18.836;2023-07-30T06:00:50;6.00;6.00;3.00
77692;PMS5003;66984;47.404;18.836;2023-07-30T06:01:55;5.00;5.00;2.00
77692;PMS5003;66984;47.404;18.836;2023-07-30T06:02:59;5.00;5.00;2.00
77692;PMS5003;66984;47.404;18.836;2023-07-30T06:04:03;5.75;4.25;1.00
77692;PMS5003;66984;47.404;18.836;2023-07-30T06:05:12;5.00;4.00;1.00
77692;PMS5003;66984;47.404;18.836;2023-07-30T06:06:16;5.00;5.00;2.00
77692;PMS5003;66984;47.404;18.836;2023-07-30T06:07:25;5.00;5.00;3.00
77692;PMS5003;66984;47.404;18.836;2023-07-30T06:08:28;4.50;4.00;1.00
77692;PMS5003;66984;47.404;18.836;2023-07-30T06:09:32;5.00;5.00;1.00
77692;PMS5003;66984;47.404;18.836;2023-07-30T06:10:35;5.00;5.00;2.00
77692;PMS5003;66984;47.404;18.836;2023-07-30T06:11:39;4.00;4.00;1.00
77692;PMS5003;66984;47.404;18.836;2023-07-30T06:12:48;5.00;5.00;3.00
77692;PMS5003;66984;47.404;18.836;2023-07-30T06:13:51;5.00;5.00;3.00
77692;PMS5003;66984;47.404;18.836;2023-07-30T06:14:54;4.00;4.00;3.00
77692;PMS5003;66984;47.404;18.836;2023-07-30T06:15:57;3.00;3.00;2.00
77692;PMS5003;66984;47.404;18.836;2023-07-30T06:17:00;3.75;3.75;1.00